Time;durP1;ratioP1;P1;durP2;ratioP2;P2;SDS_P1;SDS_P2;PMS_P1;PMS_P2;Temp;Humidity;BMP_temperature;BMP_pressure;BME280_temperature;BME280_humidity;BME280_pressure;Samples;Min_cycle;Max_cycle;Signal;HPM_P1;HPM_P2
2022/03/03 00:02:08;;;;;;;4.03;2.97;;;1.20;82.40;;;;;;5000728;28;20212;-79
2022/03/03 00:04:34;;;;;;;2.50;2.30;;;1.20;82.50;;;;;;4990075;28;20193;-79
2022/03/03 00:07:00;;;;;;;3.87;2.80;;;1.20;82.40;;;;;;4994337;28;20190;-79
2022/03/03 00:09:25;;;;;;;2.73;2.03;;;1.20;82.30;;;;;;4993827;28;21026;-79
2022/03/03 00:11:51;;;;;;;4.43;2.83;;;1.20;82.40;;;;;;4994143;28;20188;-79
2022/03/03 00:14:17;;;;;;;2.83;2.37;;;1.20;82.30;;;;;;4996887;28;20246;-80
2022/03/03 00:16:43;;;;;;;3.60;3.03;;;1.20;82.40;;;;;;4998851;28;20668;-80
2022/03/03 00:19:08;;;;;;;2.90;2.70;;;1.20;82.30;;;;;;4994668;28;20191;-79
2022/03/03 00:21:34;;;;;;;2.97;2.50;;;1.20;82.20;;;;;;4996495;28;20202;-79
2022/03/03 00:24:00;;;;;;;3.77;2.83;;;1.10;82.30;;;;;;4994711;28;20581;-79
2022/03/03 00:26:26;;;;;;;5.27;2.97;;;1.10;82.30;;;;;;4998247;28;20196;-79
2022/03/03 00:28:52;;;;;;;3.17;2.73;;;1.10;82.30;;;;;;4995457;28;20728;-79
2022/03/03 00:31:17;;;;;;;2.17;1.97;;;1.10;82.40;;;;;;4998697;28;20189;-79
2022/03/03 00:33:43;;;;;;;2.27;1.97;;;1.10;82.50;;;;;;4992405;28;20178;-79
2022/03/03 00:36:10;;;;;;;4.40;3.00;;;1.10;82.60;;;;;;4994203;28;20213;-80
2022/03/03 00:38:36;;;;;;;1.93;1.83;;;1.10;82.70;;;;;;4997667;28;20670;-80
2022/03/03 00:41:02;;;;;;;2.17;2.07;;;1.10;82.80;;;;;;4996659;28;20239;-80
2022/03/03 00:43:28;;;;;;;2.87;2.33;;;1.10;82.80;;;;;;5002826;28;20671;-80
2022/03/03 00:45:54;;;;;;;4.63;3.30;;;1.10;82.90;;;;;;5003293;28;20672;-80
2022/03/03 00:48:19;;;;;;;3.63;2.57;;;1.10;82.90;;;;;;4999787;28;20215;-79
2022/03/03 00:50:46;;;;;;;1.80;1.80;;;1.10;82.90;;;;;;4999476;28;20189;-79
2022/03/03 00:53:11;;;;;;;4.50;2.97;;;1.10;83.10;;;;;;4999240;28;20669;-79
2022/03/03 00:55:37;;;;;;;4.20;3.33;;;1.10;82.90;;;;;;4997926;28;20267;-80
2022/03/03 00:58:03;;;;;;;6.93;3.17;;;1.10;83.10;;;;;;4997043;28;20896;-78
2022/03/03 01:00:29;;;;;;;2.57;2.37;;;1.10;83.10;;;;;;4997875;28;20205;-78
2022/03/03 01:02:55;;;;;;;3.30;3.10;;;1.10;83.10;;;;;;4998850;28;20675;-79
2022/03/03 01:05:21;;;;;;;2.53;2.07;;;1.10;83.20;;;;;;4998573;28;20183;-79
2022/03/03 01:07:46;;;;;;;2.03;1.93;;;1.10;83.20;;;;;;5006075;28;20212;-79
2022/03/03 01:10:13;;;;;;;2.90;2.67;;;1.10;83.20;;;;;;5001808;28;20256;-79
2022/03/03 01:12:39;;;;;;;4.33;2.63;;;1.10;83.20;;;;;;5000942;28;20200;-79
2022/03/03 01:15:07;;;;;;;2.40;2.20;;;1.10;83.30;;;;;;4999132;28;20268;-79
2022/03/03 01:17:33;;;;;;;3.67;2.37;;;1.10;83.30;;;;;;5005761;28;20189;-79
2022/03/03 01:19:59;;;;;;;5.70;2.40;;;1.10;83.30;;;;;;5003092;28;20267;-79
2022/03/03 01:22:25;;;;;;;3.37;3.17;;;1.10;83.40;;;;;;5002290;28;20181;-79
2022/03/03 01:24:51;;;;;;;3.23;2.33;;;1.10;83.40;;;;;;4999873;28;20185;-80
2022/03/03 01:27:16;;;;;;;2.37;2.20;;;1.10;83.50;;;;;;4996895;28;20628;-79
2022/03/03 01:29:43;;;;;;;4.27;3.03;;;1.10;83.50;;;;;;4998935;28;20221;-80
2022/03/03 01:32:09;;;;;;;4.07;2.63;;;1.00;83.60;;;;;;5001846;28;20275;-80
2022/03/03 01:34:35;;;;;;;2.27;2.17;;;1.00;83.70;;;;;;4999327;28;20382;-79
2022/03/03 01:37:02;;;;;;;3.63;2.20;;;1.10;83.70;;;;;;4999438;28;20180;-79
2022/03/03 01:39:28;;;;;;;3.30;2.97;;;1.10;83.60;;;;;;5002315;28;20584;-79
2022/03/03 01:41:54;;;;;;;2.13;2.03;;;1.10;83.60;;;;;;4994557;28;20184;-79
2022/03/03 01:44:19;;;;;;;3.17;2.30;;;1.10;83.60;;;;;;4998689;28;20205;-79
2022/03/03 01:46:57;;;;;;;6.37;3.37;;;1.10;83.50;;;;;;4999863;28;20197;-79
2022/03/03 01:49:25;;;;;;;2.53;2.43;;;1.10;83.60;;;;;;5003103;28;20248;-79
2022/03/03 01:51:52;;;;;;;1.93;1.83;;;1.10;83.60;;;;;;5000592;28;20326;-79
2022/03/03 01:54:19;;;;;;;3.33;2.80;;;1.10;83.60;;;;;;5000046;28;20285;-79
2022/03/03 01:56:46;;;;;;;2.23;2.00;;;1.10;83.80;;;;;;5000422;28;20190;-79
2022/03/03 01:59:13;;;;;;;2.87;2.67;;;1.20;83.70;;;;;;4999315;28;20193;-79
2022/03/03 02:01:41;;;;;;;3.10;2.83;;;1.20;83.70;;;;;;4998191;28;20581;-79
2022/03/03 02:04:08;;;;;;;4.60;3.73;;;1.20;83.80;;;;;;4998029;28;20180;-79
2022/03/03 02:06:35;;;;;;;3.07;2.73;;;1.20;83.90;;;;;;5001206;28;20678;-79
2022/03/03 02:09:01;;;;;;;3.23;2.83;;;1.10;84.00;;;;;;4996602;28;20209;-79
2022/03/03 02:11:26;;;;;;;3.37;2.87;;;1.10;84.10;;;;;;4995430;28;20187;-79
2022/03/03 02:13:52;;;;;;;2.93;2.70;;;1.10;84.10;;;;;;4996910;28;20188;-78
2022/03/03 02:16:18;;;;;;;3.80;3.50;;;1.10;84.10;;;;;;4993975;28;20249;-80
2022/03/03 02:18:44;;;;;;;2.97;2.43;;;1.20;84.00;;;;;;4996645;28;20611;-79
2022/03/03 02:21:17;;;;;;;2.60;2.40;;;1.10;84.10;;;;;;4995309;28;20208;-78
2022/03/03 02:23:43;;;;;;;3.30;3.10;;;1.10;84.20;;;;;;4997487;28;20181;-79
2022/03/03 02:26:21;;;;;;;4.20;3.50;;;1.10;84.20;;;;;;5000214;28;20188;-79
2022/03/03 02:28:53;;;;;;;3.50;2.93;;;1.10;84.40;;;;;;4993707;28;21689;-78
2022/03/03 02:31:19;;;;;;;4.07;2.20;;;1.10;84.60;;;;;;4997508;28;20239;-79
2022/03/03 02:33:46;;;;;;;5.00;3.60;;;1.00;84.70;;;;;;4994471;28;20186;-80
2022/03/03 02:36:23;;;;;;;2.83;2.63;;;1.00;85.00;;;;;;4996010;28;20205;-80
2022/03/03 02:38:50;;;;;;;3.93;2.80;;;1.00;84.90;;;;;;4997025;28;20220;-78
2022/03/03 02:41:16;;;;;;;2.70;2.30;;;1.10;84.90;;;;;;4995195;28;20275;-80
2022/03/03 02:43:42;;;;;;;3.47;3.17;;;1.10;85.00;;;;;;4998014;28;20264;-78
2022/03/03 02:46:09;;;;;;;3.17;2.93;;;1.10;85.00;;;;;;4997838;28;20202;-79
2022/03/03 02:48:35;;;;;;;7.40;3.33;;;1.10;85.10;;;;;;4997001;28;20232;-79
2022/03/03 02:51:01;;;;;;;4.63;3.67;;;1.10;85.10;;;;;;4999344;28;20181;-78
2022/03/03 02:53:27;;;;;;;5.23;3.03;;;1.10;85.10;;;;;;4994006;28;20685;-79
2022/03/03 02:55:53;;;;;;;3.90;3.40;;;1.10;85.00;;;;;;5000944;28;20244;-79
2022/03/03 02:58:19;;;;;;;4.33;2.87;;;1.10;85.00;;;;;;4996608;28;20186;-79
2022/03/03 03:00:46;;;;;;;3.13;3.00;;;1.10;85.10;;;;;;5001680;28;20275;-80
2022/03/03 03:03:13;;;;;;;3.57;3.27;;;1.10;85.40;;;;;;4996511;28;20190;-80
2022/03/03 03:05:40;;;;;;;3.53;2.77;;;1.00;85.60;;;;;;4998455;28;20187;-79
2022/03/03 03:08:06;;;;;;;4.73;3.80;;;1.00;85.70;;;;;;4997118;28;20189;-79
2022/03/03 03:10:32;;;;;;;6.63;4.47;;;1.00;85.70;;;;;;4996971;28;20220;-79
2022/03/03 03:12:58;;;;;;;2.60;2.40;;;1.00;85.70;;;;;;4993478;28;20232;-79
2022/03/03 03:15:24;;;;;;;4.90;3.57;;;1.10;85.70;;;;;;4996513;28;20181;-79
2022/03/03 03:17:50;;;;;;;4.73;3.63;;;1.00;85.80;;;;;;4998025;28;20284;-79
2022/03/03 03:20:16;;;;;;;6.13;3.87;;;1.00;85.90;;;;;;4994908;28;20210;-79
2022/03/03 03:22:42;;;;;;;3.83;3.60;;;1.00;85.90;;;;;;4996852;28;20213;-79
2022/03/03 03:25:10;;;;;;;5.23;4.23;;;1.00;86.00;;;;;;4998708;28;20683;-79
2022/03/03 03:27:41;;;;;;;4.87;3.43;;;1.00;86.10;;;;;;4995132;28;20200;-79
2022/03/03 03:30:09;;;;;;;3.10;2.90;;;1.00;86.20;;;;;;4997008;28;21769;-79
2022/03/03 03:32:35;;;;;;;2.87;2.67;;;1.00;86.20;;;;;;5000023;28;20251;-79
2022/03/03 03:35:01;;;;;;;4.43;4.03;;;1.00;86.30;;;;;;4996827;28;20263;-79
2022/03/03 03:37:27;;;;;;;3.90;3.60;;;0.90;86.50;;;;;;4995054;28;20279;-80
2022/03/03 03:39:53;;;;;;;5.33;3.80;;;0.90;86.60;;;;;;5000972;28;20191;-80
2022/03/03 03:42:19;;;;;;;3.00;2.90;;;0.90;86.70;;;;;;5000377;28;20198;-79
2022/03/03 03:44:45;;;;;;;6.00;3.70;;;0.90;86.70;;;;;;4998837;28;20185;-79
2022/03/03 03:47:12;;;;;;;3.83;3.53;;;0.90;86.70;;;;;;4995573;28;20204;-80
2022/03/03 03:49:38;;;;;;;3.90;3.50;;;0.90;86.70;;;;;;5000269;28;20355;-80
2022/03/03 03:52:04;;;;;;;4.20;3.13;;;0.90;86.70;;;;;;4995974;28;20272;-80
2022/03/03 03:54:30;;;;;;;4.70;3.03;;;0.90;86.60;;;;;;4997518;28;20546;-80
2022/03/03 03:56:55;;;;;;;5.47;3.50;;;0.90;86.60;;;;;;4994889;28;20690;-79
2022/03/03 03:59:21;;;;;;;3.80;3.33;;;0.90;86.50;;;;;;4998000;28;20185;-80
2022/03/03 04:01:47;;;;;;;3.97;2.93;;;0.90;86.50;;;;;;4997570;28;20184;-80
2022/03/03 04:04:13;;;;;;;10.33;2.50;;;0.90;86.50;;;;;;4995495;28;20194;-80
2022/03/03 04:06:39;;;;;;;3.33;2.60;;;0.90;86.60;;;;;;4994212;28;20204;-80
2022/03/03 04:09:05;;;;;;;2.80;2.60;;;0.90;86.60;;;;;;4993903;28;20737;-81
2022/03/03 04:11:31;;;;;;;4.70;3.40;;;0.90;86.50;;;;;;4994155;28;20259;-80
2022/03/03 04:13:57;;;;;;;3.23;2.80;;;0.90;86.60;;;;;;5000243;28;20263;-81
2022/03/03 04:16:27;;;;;;;3.40;3.10;;;0.90;86.60;;;;;;4998414;28;20207;-80
2022/03/03 04:18:54;;;;;;;2.80;2.57;;;0.90;86.60;;;;;;5007691;28;20189;-80
2022/03/03 04:21:20;;;;;;;5.13;3.43;;;0.90;86.40;;;;;;5011615;28;20228;-80
2022/03/03 04:23:46;;;;;;;6.60;3.23;;;1.00;86.30;;;;;;4997130;28;20667;-80
2022/03/03 04:26:12;;;;;;;4.37;3.97;;;0.90;86.30;;;;;;5000900;28;20186;-80
2022/03/03 04:28:37;;;;;;;3.60;3.03;;;0.90;86.30;;;;;;4999248;28;20216;-80
2022/03/03 04:31:04;;;;;;;3.13;2.93;;;0.90;86.30;;;;;;4996997;28;20291;-79
2022/03/03 04:33:30;;;;;;;7.30;3.13;;;1.00;86.30;;;;;;4997050;28;20188;-80
2022/03/03 04:35:59;;;;;;;2.87;2.60;;;1.00;86.20;;;;;;4992951;28;20185;-79
2022/03/03 04:38:25;;;;;;;3.93;3.10;;;0.90;86.10;;;;;;4993819;28;20574;-79
2022/03/03 04:40:51;;;;;;;7.97;2.77;;;0.90;86.30;;;;;;4993195;28;20186;-79
2022/03/03 04:43:17;;;;;;;5.20;3.50;;;1.00;86.20;;;;;;4993466;28;20217;-81
2022/03/03 04:45:44;;;;;;;6.97;3.80;;;0.90;86.20;;;;;;4993502;28;20258;-80
2022/03/03 04:48:10;;;;;;;4.10;3.27;;;0.90;86.30;;;;;;4994880;28;20189;-79
2022/03/03 04:50:36;;;;;;;5.57;2.37;;;0.90;86.30;;;;;;4994336;28;20664;-80
2022/03/03 04:53:02;;;;;;;3.50;3.30;;;0.90;86.40;;;;;;4999085;28;20192;-80
2022/03/03 04:55:28;;;;;;;4.07;2.93;;;0.90;86.30;;;;;;4998455;28;20185;-79
2022/03/03 04:57:54;;;;;;;3.30;2.33;;;0.90;86.30;;;;;;4994779;28;20190;-79
2022/03/03 05:00:20;;;;;;;3.67;3.17;;;0.90;86.40;;;;;;4995509;28;20188;-79
2022/03/03 05:02:46;;;;;;;3.63;3.43;;;0.90;86.40;;;;;;4997151;28;20901;-80
2022/03/03 05:05:11;;;;;;;5.83;2.80;;;0.90;86.50;;;;;;4997893;28;21038;-79
2022/03/03 05:07:37;;;;;;;3.47;3.23;;;0.90;86.40;;;;;;4996611;28;20181;-80
2022/03/03 05:10:04;;;;;;;7.00;2.70;;;0.80;86.40;;;;;;4994206;28;20224;-80
2022/03/03 05:12:30;;;;;;;5.20;3.03;;;0.80;86.50;;;;;;4997119;28;20189;-80
2022/03/03 05:14:56;;;;;;;4.53;3.57;;;0.80;86.70;;;;;;4996363;28;20180;-80
2022/03/03 05:17:22;;;;;;;3.43;2.73;;;0.80;86.90;;;;;;4997780;28;20181;-79
2022/03/03 05:19:48;;;;;;;4.20;2.90;;;0.80;87.00;;;;;;4999555;28;20574;-80
2022/03/03 05:22:14;;;;;;;5.67;2.40;;;0.80;87.00;;;;;;4994189;28;20182;-79
2022/03/03 05:24:40;;;;;;;3.57;3.40;;;0.80;86.80;;;;;;4993175;28;20190;-79
2022/03/03 05:27:06;;;;;;;4.23;3.67;;;0.80;86.70;;;;;;5000136;28;20223;-79
2022/03/03 05:29:31;;;;;;;3.30;3.10;;;0.80;86.60;;;;;;5006260;28;20248;-79
2022/03/03 05:31:58;;;;;;;3.47;3.20;;;0.80;86.40;;;;;;5000442;28;20185;-78
2022/03/03 05:34:25;;;;;;;6.60;3.27;;;0.80;86.60;;;;;;4997760;28;20181;-79
2022/03/03 05:36:52;;;;;;;5.17;2.77;;;0.80;86.60;;;;;;5000141;28;20194;-81
2022/03/03 05:39:18;;;;;;;4.90;3.27;;;0.90;86.50;;;;;;5003741;28;20189;-81
2022/03/03 05:41:44;;;;;;;4.03;3.27;;;0.90;86.20;;;;;;4998621;28;20248;-81
2022/03/03 05:44:13;;;;;;;4.20;2.50;;;0.90;86.00;;;;;;4997070;28;20177;-79
2022/03/03 05:46:44;;;;;;;4.77;3.53;;;0.90;85.80;;;;;;5000900;28;20634;-78
2022/03/03 05:49:10;;;;;;;5.20;3.00;;;1.00;85.70;;;;;;4994377;28;20212;-81
2022/03/03 05:51:37;;;;;;;3.30;2.60;;;1.00;85.40;;;;;;4997034;28;20193;-81
2022/03/03 05:54:03;;;;;;;5.27;3.10;;;1.00;85.00;;;;;;4998396;28;20276;-81
2022/03/03 05:56:36;;;;;;;3.40;3.10;;;1.00;85.10;;;;;;4995260;28;20188;-80
2022/03/03 05:59:06;;;;;;;3.60;2.90;;;1.00;85.20;;;;;;5000715;28;20177;-80
2022/03/03 06:01:37;;;;;;;4.20;3.03;;;1.10;85.20;;;;;;4997805;28;20263;-81
2022/03/03 06:04:06;;;;;;;3.03;2.40;;;1.10;84.90;;;;;;4993511;28;20200;-80
2022/03/03 06:06:36;;;;;;;3.83;3.63;;;1.10;84.70;;;;;;4999330;28;20190;-81
2022/03/03 06:09:17;;;;;;;3.80;3.50;;;1.00;84.80;;;;;;4997508;28;20206;-81
2022/03/03 06:11:52;;;;;;;3.73;3.40;;;1.10;84.60;;;;;;4997562;28;20217;-80
2022/03/03 06:14:27;;;;;;;3.87;3.57;;;1.10;84.60;;;;;;4997000;28;20238;-80
2022/03/03 06:16:54;;;;;;;3.80;3.13;;;1.10;84.50;;;;;;4998358;28;20736;-80
2022/03/03 06:19:20;;;;;;;8.97;3.53;;;1.20;84.40;;;;;;4995208;28;20180;-78
2022/03/03 06:21:45;;;;;;;4.07;2.83;;;1.20;84.30;;;;;;4996110;28;20185;-78
2022/03/03 06:24:11;;;;;;;5.50;3.73;;;1.30;84.00;;;;;;4996546;28;20193;-78
2022/03/03 06:26:37;;;;;;;3.30;2.77;;;1.30;83.70;;;;;;4993696;28;20185;-78
2022/03/03 06:29:04;;;;;;;4.27;3.40;;;1.40;83.40;;;;;;4998828;28;20230;-78
2022/03/03 06:31:29;;;;;;;5.07;4.10;;;1.40;83.10;;;;;;4998254;28;20189;-78
2022/03/03 06:33:55;;;;;;;4.07;3.73;;;1.40;82.80;;;;;;4997240;28;20949;-78
2022/03/03 06:36:21;;;;;;;4.77;3.27;;;1.50;82.80;;;;;;4996821;28;20713;-78
2022/03/03 06:38:47;;;;;;;3.23;2.93;;;1.60;82.60;;;;;;4995486;28;20331;-80
2022/03/03 06:41:13;;;;;;;4.43;3.30;;;1.60;81.90;;;;;;4996210;28;20967;-78
2022/03/03 06:43:38;;;;;;;4.03;3.40;;;1.60;82.00;;;;;;4998202;28;20823;-78
2022/03/03 06:46:05;;;;;;;4.17;3.33;;;1.60;81.90;;;;;;4996515;28;20197;-77
2022/03/03 06:48:31;;;;;;;4.90;3.80;;;1.70;81.60;;;;;;4994896;28;20577;-78
2022/03/03 06:51:02;;;;;;;2.97;2.67;;;1.70;81.40;;;;;;4990853;28;20615;-78
2022/03/03 06:53:31;;;;;;;7.40;3.90;;;1.70;80.90;;;;;;4993374;28;20186;-78
2022/03/03 06:56:08;;;;;;;7.07;3.77;;;1.80;80.80;;;;;;4997847;28;20185;-78
2022/03/03 06:58:34;;;;;;;7.40;3.83;;;1.70;80.20;;;;;;4998208;28;20242;-79
2022/03/03 07:01:06;;;;;;;6.40;3.60;;;1.70;80.40;;;;;;4993296;28;20185;-78
2022/03/03 07:03:33;;;;;;;7.03;4.53;;;1.80;80.40;;;;;;4999076;28;20176;-78
2022/03/03 07:06:01;;;;;;;4.03;3.00;;;1.80;80.00;;;;;;4994646;28;20177;-79
2022/03/03 07:08:26;;;;;;;5.30;4.10;;;1.80;80.20;;;;;;4992002;28;20331;-80
2022/03/03 07:10:52;;;;;;;8.17;3.50;;;1.80;80.20;;;;;;4997450;28;20181;-79
2022/03/03 07:13:18;;;;;;;5.10;3.53;;;1.90;79.90;;;;;;4995185;28;20220;-77
2022/03/03 07:15:49;;;;;;;5.17;3.67;;;2.00;79.70;;;;;;4997749;28;20177;-79
2022/03/03 07:18:20;;;;;;;4.27;3.70;;;2.00;79.60;;;;;;4995566;28;20268;-77
2022/03/03 07:21:02;;;;;;;6.50;4.13;;;2.10;79.00;;;;;;4995751;28;20580;-78
2022/03/03 07:23:35;;;;;;;8.03;4.33;;;2.20;78.80;;;;;;4997863;28;20188;-78
2022/03/03 07:26:03;;;;;;;4.20;3.80;;;2.20;78.40;;;;;;5000298;28;20231;-78
2022/03/03 07:28:30;;;;;;;5.67;3.90;;;2.20;78.30;;;;;;4996923;28;20184;-79
2022/03/03 07:31:00;;;;;;;7.03;4.07;;;2.30;78.10;;;;;;4996074;28;20182;-77
2022/03/03 07:33:47;;;;;;;4.33;3.93;;;2.30;77.80;;;;;;4994620;28;20593;-78
2022/03/03 07:36:18;;;;;;;9.43;4.10;;;2.30;78.00;;;;;;4998241;28;20184;-77
2022/03/03 07:39:10;;;;;;;4.97;4.03;;;2.40;78.10;;;;;;4995030;28;20208;-77
2022/03/03 07:41:36;;;;;;;5.13;3.63;;;2.50;77.50;;;;;;4994096;28;20185;-77
2022/03/03 07:44:02;;;;;;;6.27;4.47;;;2.60;77.40;;;;;;4992336;28;20192;-76
2022/03/03 07:46:28;;;;;;;5.83;4.73;;;2.70;77.30;;;;;;4996043;28;20207;-77
2022/03/03 07:48:55;;;;;;;5.63;4.90;;;2.80;77.00;;;;;;4991063;28;20216;-77
2022/03/03 07:51:22;;;;;;;8.80;3.90;;;2.90;76.40;;;;;;4998559;28;20247;-77
2022/03/03 07:53:48;;;;;;;8.03;4.30;;;2.90;75.70;;;;;;4997125;28;20186;-77
2022/03/03 07:56:37;;;;;;;4.30;3.77;;;2.90;75.90;;;;;;4999087;28;20620;-76
2022/03/03 07:59:11;;;;;;;3.53;3.30;;;3.00;75.60;;;;;;4992329;28;20193;-75
2022/03/03 08:01:38;;;;;;;9.20;4.77;;;2.90;75.30;;;;;;4997564;28;20585;-77
2022/03/03 08:04:05;;;;;;;4.73;3.20;;;2.80;75.40;;;;;;4991658;28;20232;-77
2022/03/03 08:06:32;;;;;;;4.30;3.50;;;2.80;75.80;;;;;;4996453;28;20185;-80
2022/03/03 08:09:01;;;;;;;5.17;3.97;;;2.70;76.00;;;;;;4995511;28;20204;-77
2022/03/03 08:11:28;;;;;;;5.40;3.93;;;2.70;76.30;;;;;;4997431;28;20214;-77
2022/03/03 08:13:56;;;;;;;6.67;3.67;;;2.80;76.30;;;;;;5000000;28;20181;-77
2022/03/03 08:16:22;;;;;;;4.97;4.37;;;2.80;76.00;;;;;;4996957;28;20177;-78
2022/03/03 08:18:48;;;;;;;10.63;4.43;;;2.90;75.80;;;;;;4992010;28;20189;-77
2022/03/03 08:21:15;;;;;;;4.37;3.70;;;2.90;75.70;;;;;;4998121;28;20196;-77
2022/03/03 08:23:43;;;;;;;3.63;3.30;;;2.90;75.60;;;;;;4994889;28;20231;-78
2022/03/03 08:26:12;;;;;;;4.20;3.80;;;3.00;75.30;;;;;;4993877;28;20185;-78
2022/03/03 08:28:39;;;;;;;4.90;3.87;;;3.00;75.20;;;;;;4992693;28;20284;-78
2022/03/03 08:31:07;;;;;;;11.37;4.87;;;3.00;75.40;;;;;;4994722;28;20217;-78
2022/03/03 08:33:52;;;;;;;4.73;4.30;;;3.10;75.20;;;;;;4996296;28;20189;-77
2022/03/03 08:36:25;;;;;;;4.60;3.47;;;3.00;74.90;;;;;;4992191;28;20193;-77
2022/03/03 08:38:52;;;;;;;4.07;3.50;;;3.00;75.20;;;;;;4996549;28;20189;-78
2022/03/03 08:41:22;;;;;;;3.43;3.13;;;3.10;75.10;;;;;;4998504;28;20180;-77
2022/03/03 08:43:52;;;;;;;6.23;4.20;;;3.10;75.20;;;;;;4996279;28;20675;-77
2022/03/03 08:46:24;;;;;;;4.60;4.00;;;3.20;75.00;;;;;;4995116;28;20205;-77
2022/03/03 08:48:51;;;;;;;5.90;3.17;;;3.30;74.90;;;;;;4996559;28;20271;-78
2022/03/03 08:51:19;;;;;;;4.10;3.53;;;3.30;74.90;;;;;;4994135;28;20248;-77
2022/03/03 08:53:46;;;;;;;4.03;3.63;;;3.30;74.50;;;;;;4993171;28;20667;-76
2022/03/03 08:56:12;;;;;;;5.03;3.73;;;3.30;74.70;;;;;;4994075;28;20185;-76
2022/03/03 08:58:38;;;;;;;4.60;4.20;;;3.20;74.70;;;;;;4993735;28;20235;-75
2022/03/03 09:01:04;;;;;;;4.27;3.10;;;3.20;74.70;;;;;;4999735;28;20193;-78
2022/03/03 09:03:30;;;;;;;6.43;3.93;;;3.10;74.90;;;;;;5000139;28;20181;-78
2022/03/03 09:05:56;;;;;;;3.47;3.03;;;3.10;75.20;;;;;;4998563;28;20629;-76
2022/03/03 09:08:23;;;;;;;3.97;3.57;;;3.10;74.90;;;;;;5000977;28;20689;-78
2022/03/03 09:10:49;;;;;;;5.03;2.53;;;3.20;74.80;;;;;;5002408;28;20220;-79
2022/03/03 09:13:15;;;;;;;6.37;4.23;;;3.30;75.10;;;;;;5000602;28;20343;-80
2022/03/03 09:15:42;;;;;;;4.77;3.80;;;3.40;74.70;;;;;;4997612;28;20187;-80
2022/03/03 09:18:08;;;;;;;5.87;3.77;;;3.40;74.10;;;;;;4990900;28;20173;-80
2022/03/03 09:20:34;;;;;;;4.17;3.33;;;3.50;74.20;;;;;;4996596;28;20204;-78
2022/03/03 09:23:00;;;;;;;5.63;3.60;;;3.60;74.30;;;;;;4996851;28;20201;-79
2022/03/03 09:25:26;;;;;;;3.93;3.63;;;3.50;73.70;;;;;;4999716;28;20189;-78
2022/03/03 09:27:52;;;;;;;5.60;4.30;;;3.50;74.00;;;;;;4996938;28;20851;-77
2022/03/03 09:30:21;;;;;;;5.17;3.33;;;3.60;73.90;;;;;;4994699;28;20212;-77
2022/03/03 09:32:48;;;;;;;8.33;4.93;;;3.60;73.70;;;;;;4994681;28;20189;-78
2022/03/03 09:35:14;;;;;;;5.70;4.80;;;3.50;74.00;;;;;;4996403;28;20189;-77
2022/03/03 09:37:40;;;;;;;4.77;4.00;;;3.50;74.10;;;;;;4995541;28;20177;-76
2022/03/03 09:40:08;;;;;;;5.47;4.30;;;3.60;74.30;;;;;;4994368;28;20178;-77
2022/03/03 09:42:35;;;;;;;4.50;4.10;;;3.70;74.20;;;;;;4997558;28;20189;-76
2022/03/03 09:45:02;;;;;;;6.10;4.33;;;3.90;73.70;;;;;;4990837;28;20235;-76
2022/03/03 09:47:28;;;;;;;6.07;3.97;;;4.10;73.10;;;;;;4996801;28;20190;-78
2022/03/03 09:49:54;;;;;;;3.73;3.43;;;4.10;72.20;;;;;;4993218;28;20263;-78
2022/03/03 09:52:20;;;;;;;5.33;4.60;;;4.10;72.00;;;;;;4998153;28;20196;-75
2022/03/03 09:54:51;;;;;;;5.43;3.90;;;4.20;72.50;;;;;;4998994;28;20822;-76
2022/03/03 09:57:17;;;;;;;4.87;3.97;;;4.60;71.90;;;;;;4998602;28;20184;-76
2022/03/03 09:59:44;;;;;;;8.63;4.80;;;5.00;71.40;;;;;;5001002;28;20193;-76
2022/03/03 10:02:11;;;;;;;7.83;3.80;;;5.20;69.90;;;;;;4994103;28;20180;-76
2022/03/03 10:04:37;;;;;;;8.17;4.40;;;5.20;69.50;;;;;;4998977;28;20201;-79
2022/03/03 10:07:05;;;;;;;5.47;4.33;;;5.20;69.40;;;;;;4998557;28;20185;-75
2022/03/03 10:09:32;;;;;;;3.80;3.50;;;5.10;69.20;;;;;;4995139;28;20220;-78
2022/03/03 10:12:02;;;;;;;4.90;3.77;;;5.00;68.90;;;;;;4992768;28;20180;-77
2022/03/03 10:14:30;;;;;;;8.70;5.10;;;4.90;69.50;;;;;;4996875;28;20260;-78
2022/03/03 10:16:56;;;;;;;5.13;4.23;;;4.80;70.00;;;;;;4996188;28;20894;-79
2022/03/03 10:19:22;;;;;;;6.47;4.27;;;4.80;70.20;;;;;;4991071;28;20213;-78
2022/03/03 10:21:49;;;;;;;4.87;4.40;;;4.90;69.80;;;;;;4997532;28;20209;-79
2022/03/03 10:24:24;;;;;;;6.83;4.53;;;4.90;70.00;;;;;;4994585;28;20599;-76
2022/03/03 10:27:18;;;;;;;3.60;3.37;;;5.00;70.00;;;;;;4994897;28;20210;-79
2022/03/03 10:29:47;;;;;;;3.97;3.57;;;5.00;70.00;;;;;;5001139;28;20222;-75
2022/03/03 10:32:23;;;;;;;5.00;4.50;;;5.00;69.60;;;;;;5007884;28;20197;-79
2022/03/03 10:34:49;;;;;;;7.20;4.63;;;5.00;69.80;;;;;;4999692;28;20737;-73
2022/03/03 10:37:21;;;;;;;4.80;4.00;;;5.00;69.70;;;;;;4999546;28;20213;-76
2022/03/03 10:39:59;;;;;;;4.57;4.17;;;4.90;70.00;;;;;;4993869;28;20188;-76
2022/03/03 10:42:25;;;;;;;8.87;5.17;;;5.00;70.20;;;;;;4996658;28;20236;-76
2022/03/03 10:45:11;;;;;;;3.30;3.00;;;4.90;69.90;;;;;;4995241;28;20264;-75
2022/03/03 10:47:37;;;;;;;5.90;4.30;;;4.90;70.10;;;;;;4999110;28;20186;-77
2022/03/03 10:50:04;;;;;;;4.23;3.63;;;4.80;70.10;;;;;;4992717;28;20256;-77
2022/03/03 10:52:34;;;;;;;4.73;4.03;;;4.80;69.70;;;;;;4992788;28;21513;-77
2022/03/03 10:55:05;;;;;;;3.90;3.53;;;4.70;69.80;;;;;;4993589;28;20174;-76
2022/03/03 10:57:39;;;;;;;4.40;3.83;;;4.60;70.20;;;;;;4996207;28;20227;-77
2022/03/03 11:00:11;;;;;;;5.17;4.13;;;4.60;70.30;;;;;;4997179;28;20191;-77
2022/03/03 11:02:40;;;;;;;5.93;4.23;;;4.70;70.10;;;;;;4998538;28;20734;-76
2022/03/03 11:05:08;;;;;;;6.33;4.63;;;4.60;70.00;;;;;;4995187;28;20209;-76
2022/03/03 11:07:34;;;;;;;8.63;3.83;;;4.60;70.00;;;;;;4990613;28;20205;-76
2022/03/03 11:10:01;;;;;;;3.93;3.70;;;4.70;70.30;;;;;;4991017;28;20301;-77
2022/03/03 11:12:27;;;;;;;5.07;3.97;;;4.60;69.70;;;;;;4993431;28;20188;-76
2022/03/03 11:14:55;;;;;;;5.40;3.73;;;4.60;69.80;;;;;;4996422;28;20235;-76
2022/03/03 11:17:21;;;;;;;8.57;4.57;;;4.50;69.80;;;;;;4995351;28;20667;-78
2022/03/03 11:19:51;;;;;;;4.87;4.03;;;4.50;69.70;;;;;;4992447;28;20399;-78
2022/03/03 11:22:18;;;;;;;5.07;3.63;;;4.50;70.10;;;;;;4991734;28;20185;-78
2022/03/03 11:24:44;;;;;;;6.20;3.97;;;4.50;70.10;;;;;;4998542;28;20177;-78
2022/03/03 11:27:10;;;;;;;4.30;3.87;;;4.60;70.40;;;;;;4993748;28;20203;-76
2022/03/03 11:29:38;;;;;;;6.30;4.40;;;4.60;70.00;;;;;;4995972;28;20275;-76
2022/03/03 11:32:07;;;;;;;5.93;4.50;;;4.70;70.30;;;;;;4992138;28;20557;-76
2022/03/03 11:34:36;;;;;;;4.93;4.47;;;4.70;70.20;;;;;;4996517;28;20766;-76
2022/03/03 11:37:22;;;;;;;4.73;3.80;;;4.70;69.80;;;;;;4996500;28;20284;-75
2022/03/03 11:40:02;;;;;;;4.33;3.93;;;4.80;69.70;;;;;;4992042;28;20189;-76
2022/03/03 11:42:34;;;;;;;4.63;3.77;;;4.80;69.40;;;;;;4992103;28;20193;-76
2022/03/03 11:45:06;;;;;;;5.93;4.40;;;4.80;69.30;;;;;;4989827;28;20745;-76
2022/03/03 11:47:34;;;;;;;4.17;3.60;;;4.70;69.50;;;;;;4991705;28;20185;-76
2022/03/03 11:50:17;;;;;;;3.70;3.40;;;4.70;69.70;;;;;;4992622;28;20300;-78
2022/03/03 11:53:14;;;;;;;4.70;3.50;;;4.70;69.60;;;;;;4989782;28;20186;-77
2022/03/03 11:55:43;;;;;;;5.07;4.57;;;4.70;69.30;;;;;;4990831;28;20675;-77
2022/03/03 11:58:17;;;;;;;3.70;3.33;;;4.70;69.60;;;;;;4992459;28;20198;-76
2022/03/03 12:00:58;;;;;;;11.20;4.07;;;4.70;69.40;;;;;;4994278;28;20181;-77
2022/03/03 12:03:26;;;;;;;4.40;3.63;;;4.80;69.90;;;;;;4989723;28;20185;-77
2022/03/03 12:06:10;;;;;;;6.23;5.23;;;4.90;70.10;;;;;;4990629;28;20188;-77
2022/03/03 12:08:40;;;;;;;4.30;3.90;;;5.10;70.30;;;;;;4990776;28;20265;-77
2022/03/03 12:11:17;;;;;;;4.80;4.13;;;5.60;68.90;;;;;;4992159;28;20200;-77
2022/03/03 12:13:51;;;;;;;3.97;3.67;;;6.10;68.20;;;;;;4991694;28;20219;-77
2022/03/03 12:16:26;;;;;;;3.93;3.63;;;6.30;66.80;;;;;;4993052;28;20605;-77
2022/03/03 12:18:55;;;;;;;5.40;4.40;;;6.50;66.60;;;;;;4991271;28;20197;-77
2022/03/03 12:21:43;;;;;;;4.70;4.30;;;6.50;66.00;;;;;;4994418;28;20213;-77
2022/03/03 12:24:17;;;;;;;4.60;4.00;;;6.40;65.80;;;;;;4990823;28;20196;-77
2022/03/03 12:26:55;;;;;;;6.57;5.00;;;6.30;66.00;;;;;;4992197;28;20184;-76
2022/03/03 12:29:52;;;;;;;3.57;3.27;;;6.20;65.50;;;;;;4994572;28;20246;-76
2022/03/03 12:32:24;;;;;;;5.67;4.37;;;6.10;65.90;;;;;;4992356;28;20658;-77
2022/03/03 12:34:56;;;;;;;5.27;4.27;;;5.90;66.20;;;;;;4992668;28;20185;-77
2022/03/03 12:37:22;;;;;;;4.53;4.03;;;5.90;66.60;;;;;;4996183;28;20255;-77
2022/03/03 12:39:52;;;;;;;5.40;4.50;;;6.20;66.80;;;;;;4999253;28;20188;-77
2022/03/03 12:42:24;;;;;;;4.07;3.67;;;6.60;65.30;;;;;;4998163;28;20192;-78
2022/03/03 12:44:54;;;;;;;6.97;4.60;;;7.00;65.50;;;;;;5001793;28;20188;-77
2022/03/03 12:47:36;;;;;;;4.60;4.17;;;7.40;65.30;;;;;;4998048;28;20196;-77
2022/03/03 12:50:12;;;;;;;4.23;3.93;;;7.50;63.10;;;;;;4991927;28;20227;-79
2022/03/03 12:52:40;;;;;;;5.67;3.93;;;7.40;63.50;;;;;;4998399;28;20605;-79
2022/03/03 12:55:10;;;;;;;4.97;4.20;;;7.30;63.10;;;;;;4995896;28;20284;-78
2022/03/03 12:57:39;;;;;;;4.63;4.03;;;7.10;63.40;;;;;;4995084;28;20278;-78
2022/03/03 13:00:08;;;;;;;9.70;4.73;;;7.10;63.60;;;;;;4998618;28;21946;-78
2022/03/03 13:02:54;;;;;;;8.03;5.00;;;7.10;63.90;;;;;;5000718;28;20189;-77
2022/03/03 13:05:29;;;;;;;4.33;4.03;;;7.10;63.80;;;;;;5000140;28;20216;-77